createdAt,value
2023-01-30T00:00:37.072Z,6.00
2023-01-30T00:01:37.054Z,5.93
2023-01-30T00:02:37.052Z,5.99
2023-01-30T00:03:37.363Z,5.86
2023-01-30T00:04:37.062Z,5.81
2023-01-30T00:05:37.025Z,5.99
2023-01-30T00:06:37.028Z,5.89
2023-01-30T00:07:37.022Z,5.86
2023-01-30T00:08:37.011Z,5.82
2023-01-30T00:09:37.005Z,5.72
2023-01-30T00:10:36.998Z,5.75
2023-01-30T00:11:36.997Z,5.76
2023-01-30T00:12:36.987Z,5.76
2023-01-30T00:13:36.975Z,5.85
2023-01-30T00:14:36.978Z,5.93
2023-01-30T00:15:36.963Z,5.89
2023-01-30T00:16:37.131Z,5.96
2023-01-30T00:17:36.953Z,5.90
2023-01-30T00:18:36.954Z,5.76
2023-01-30T00:19:36.945Z,5.68
2023-01-30T00:20:36.939Z,5.76
2023-01-30T00:21:36.930Z,5.72
2023-01-30T00:22:36.930Z,5.68
2023-01-30T00:23:36.941Z,5.61
2023-01-30T00:24:37.051Z,5.64
2023-01-30T00:25:37.146Z,5.60
2023-01-30T00:26:36.925Z,5.71
2023-01-30T00:27:36.899Z,5.67
2023-01-30T00:28:36.890Z,5.83
2023-01-30T00:29:36.881Z,5.61
2023-01-30T00:30:36.898Z,5.68
2023-01-30T00:31:36.980Z,5.64
2023-01-30T00:32:36.875Z,5.72
2023-01-30T00:33:36.868Z,5.68
2023-01-30T00:34:36.856Z,5.71
2023-01-30T00:35:36.857Z,5.61
2023-01-30T00:36:36.910Z,5.61
2023-01-30T00:37:36.885Z,5.49
2023-01-30T00:38:36.837Z,5.68
2023-01-30T00:39:36.827Z,5.64
2023-01-30T00:40:36.825Z,5.74
2023-01-30T00:41:36.812Z,5.54
2023-01-30T00:42:36.814Z,5.68
2023-01-30T00:43:36.815Z,5.74
2023-01-30T00:44:36.807Z,5.74
2023-01-30T00:45:36.835Z,5.76
2023-01-30T00:46:36.781Z,5.68
2023-01-30T00:47:36.788Z,5.72
2023-01-30T00:48:36.781Z,5.74
2023-01-30T00:49:36.767Z,5.85
2023-01-30T00:50:36.771Z,5.67
2023-01-30T00:51:36.761Z,5.57
2023-01-30T00:52:36.756Z,5.60
2023-01-30T00:53:36.748Z,5.49
2023-01-30T00:54:36.743Z,5.60
2023-01-30T00:55:36.742Z,5.58
2023-01-30T00:56:36.731Z,5.67
2023-01-30T00:57:36.746Z,5.51
2023-01-30T00:58:36.726Z,5.40
2023-01-30T00:59:36.714Z,5.49
2023-01-30T01:00:36.712Z,5.38
2023-01-30T01:01:36.739Z,5.49
2023-01-30T01:02:36.744Z,5.64
2023-01-30T01:03:36.696Z,5.65
2023-01-30T01:04:36.680Z,5.76
2023-01-30T01:05:36.677Z,5.83
2023-01-30T01:06:36.667Z,5.65
2023-01-30T01:07:36.659Z,5.75
2023-01-30T01:08:36.680Z,5.60
2023-01-30T01:09:36.648Z,5.61
2023-01-30T01:10:36.648Z,5.72
2023-01-30T01:11:36.650Z,5.75
2023-01-30T01:12:36.644Z,5.72
2023-01-30T01:13:36.623Z,5.68
2023-01-30T01:14:36.635Z,5.58
2023-01-30T01:15:36.623Z,5.58
2023-01-30T01:16:36.652Z,5.75
2023-01-30T01:17:36.599Z,5.79
2023-01-30T01:18:36.595Z,5.72
2023-01-30T01:19:36.597Z,5.81
2023-01-30T01:20:36.594Z,5.81
2023-01-30T01:21:36.577Z,5.58
2023-01-30T01:22:36.579Z,5.57
2023-01-30T01:23:36.585Z,5.71
2023-01-30T01:24:36.562Z,5.81
2023-01-30T01:25:36.556Z,5.83
2023-01-30T01:26:36.577Z,5.81
2023-01-30T01:27:36.540Z,5.63
2023-01-30T01:28:36.553Z,5.53
2023-01-30T01:29:36.527Z,5.54
2023-01-30T01:30:36.522Z,5.60
2023-01-30T01:31:36.550Z,5.56
2023-01-30T01:32:36.533Z,5.39
2023-01-30T01:33:36.503Z,5.27
2023-01-30T01:34:36.501Z,5.33
2023-01-30T01:35:36.497Z,5.40
2023-01-30T01:36:52.684Z,5.46
2023-01-30T01:37:36.480Z,5.43
2023-01-30T01:38:36.471Z,5.40
2023-01-30T01:39:36.477Z,5.60
2023-01-30T01:40:36.464Z,5.54
2023-01-30T01:41:36.460Z,5.54
2023-01-30T01:42:36.457Z,5.48
2023-01-30T01:43:36.455Z,5.56
2023-01-30T01:44:36.449Z,5.51
2023-01-30T01:45:36.482Z,5.57
2023-01-30T01:46:36.423Z,5.46
2023-01-30T01:47:36.441Z,5.49
2023-01-30T01:48:36.413Z,5.51
2023-01-30T01:49:36.425Z,5.49
2023-01-30T01:50:36.399Z,5.65
2023-01-30T01:51:36.402Z,5.81
2023-01-30T01:52:36.390Z,5.72
2023-01-30T01:53:36.397Z,5.75
2023-01-30T01:54:36.383Z,5.65
2023-01-30T01:55:36.383Z,5.72
2023-01-30T01:56:36.368Z,5.72
2023-01-30T01:57:36.367Z,5.78
2023-01-30T01:58:36.359Z,5.75
2023-01-30T01:59:36.362Z,5.65
2023-01-30T02:00:36.346Z,5.56
2023-01-30T02:01:36.342Z,5.78
2023-01-30T02:02:36.380Z,5.63
2023-01-30T02:03:36.335Z,5.71
2023-01-30T02:04:36.322Z,5.64
2023-01-30T02:05:36.319Z,5.46
2023-01-30T02:06:36.315Z,5.53
2023-01-30T02:07:36.611Z,5.51
2023-01-30T02:08:36.306Z,5.40
2023-01-30T02:09:36.301Z,5.36
2023-01-30T02:10:36.292Z,5.42
2023-01-30T02:11:36.281Z,5.45
2023-01-30T02:12:36.273Z,5.45
2023-01-30T02:13:36.269Z,5.49
2023-01-30T02:14:36.263Z,5.46
2023-01-30T02:15:36.264Z,5.54
2023-01-30T02:16:36.247Z,5.28
2023-01-30T02:17:36.336Z,5.40
2023-01-30T02:18:36.239Z,5.30
2023-01-30T02:19:36.234Z,5.31
2023-01-30T02:20:36.239Z,5.17
2023-01-30T02:21:36.238Z,5.09
2023-01-30T02:22:36.225Z,5.12
2023-01-30T02:23:36.215Z,5.13
2023-01-30T02:24:36.201Z,5.09
2023-01-30T02:25:36.202Z,5.17
2023-01-30T02:26:36.242Z,5.15
2023-01-30T02:27:36.191Z,5.04
2023-01-30T02:28:36.182Z,4.94
2023-01-30T02:29:36.178Z,4.96
2023-01-30T02:30:36.267Z,4.89
2023-01-30T02:31:36.336Z,4.97
2023-01-30T02:32:36.158Z,5.21
2023-01-30T02:33:36.155Z,5.00
2023-01-30T02:34:36.142Z,5.22
2023-01-30T02:35:36.146Z,5.15
2023-01-30T02:36:36.130Z,5.22
2023-01-30T02:37:36.123Z,5.24
2023-01-30T02:38:36.120Z,5.21
2023-01-30T02:39:36.111Z,5.22
2023-01-30T02:40:36.104Z,5.31
2023-01-30T02:41:36.103Z,5.28
2023-01-30T02:42:36.095Z,5.31
2023-01-30T02:43:36.093Z,5.24
2023-01-30T02:44:36.079Z,5.24
2023-01-30T02:45:36.092Z,5.35
2023-01-30T02:46:36.063Z,5.31
2023-01-30T02:47:36.062Z,5.38
2023-01-30T02:48:36.053Z,5.25
2023-01-30T02:49:36.052Z,5.24
2023-01-30T02:50:36.052Z,5.12
2023-01-30T02:51:36.043Z,5.28
2023-01-30T02:52:36.027Z,5.25
2023-01-30T02:53:36.028Z,5.25
2023-01-30T02:54:36.022Z,5.27
2023-01-30T02:55:36.035Z,5.28
2023-01-30T02:56:36.003Z,5.33
2023-01-30T02:57:36.008Z,5.36
2023-01-30T02:58:35.989Z,5.27
2023-01-30T02:59:35.992Z,5.22
2023-01-30T03:00:35.976Z,5.25
2023-01-30T03:01:36.028Z,5.30
2023-01-30T03:02:36.027Z,5.17
2023-01-30T03:03:35.971Z,5.04
2023-01-30T03:04:35.957Z,5.15
2023-01-30T03:05:35.973Z,5.21
2023-01-30T03:06:35.937Z,5.13
2023-01-30T03:07:35.959Z,5.22
2023-01-30T03:08:35.938Z,5.17
2023-01-30T03:09:35.926Z,5.03
2023-01-30T03:10:35.915Z,4.99
2023-01-30T03:11:35.908Z,5.02
2023-01-30T03:12:35.898Z,5.02
2023-01-30T03:13:35.914Z,5.04
2023-01-30T03:14:35.891Z,5.09
2023-01-30T03:15:35.890Z,4.96
2023-01-30T03:16:35.883Z,5.02
2023-01-30T03:17:35.873Z,4.96
2023-01-30T03:18:35.860Z,4.86
2023-01-30T03:19:35.870Z,4.72
2023-01-30T03:20:35.849Z,4.88
2023-01-30T03:21:35.853Z,4.86
2023-01-30T03:22:35.839Z,4.82
2023-01-30T03:23:35.843Z,4.94
2023-01-30T03:24:35.829Z,4.96
2023-01-30T03:25:35.827Z,4.94
2023-01-30T03:26:35.867Z,4.94
2023-01-30T03:27:35.815Z,5.13
2023-01-30T03:28:35.809Z,5.03
2023-01-30T03:29:35.803Z,4.94
2023-01-30T03:30:35.830Z,4.91
2023-01-30T03:31:35.926Z,4.80
2023-01-30T03:32:35.781Z,4.94
2023-01-30T03:33:35.781Z,4.84
2023-01-30T03:34:35.764Z,4.80
2023-01-30T03:35:35.775Z,4.86
2023-01-30T03:36:35.746Z,4.94
2023-01-30T03:37:35.749Z,5.10
2023-01-30T03:38:35.738Z,5.03
2023-01-30T03:39:35.743Z,5.10
2023-01-30T03:40:35.732Z,5.09
2023-01-30T03:41:35.729Z,5.03
2023-01-30T03:42:35.716Z,5.02
2023-01-30T03:43:35.711Z,5.02
2023-01-30T03:44:35.723Z,4.84
2023-01-30T03:45:35.705Z,4.88
2023-01-30T03:46:35.698Z,4.84
2023-01-30T03:47:35.684Z,4.88
2023-01-30T03:48:35.689Z,5.00
2023-01-30T03:49:35.672Z,5.07
2023-01-30T03:50:35.664Z,5.06
2023-01-30T03:51:35.664Z,5.03
2023-01-30T03:52:35.663Z,5.04
2023-01-30T03:53:35.650Z,5.12
2023-01-30T03:54:35.641Z,5.09
2023-01-30T03:55:35.638Z,5.15
2023-01-30T03:56:35.652Z,5.15
2023-01-30T03:57:35.627Z,5.17
2023-01-30T03:58:35.638Z,5.27
2023-01-30T03:59:35.608Z,5.24
2023-01-30T04:00:35.626Z,5.24
2023-01-30T04:01:35.694Z,5.18
2023-01-30T04:02:35.591Z,5.04
2023-01-30T04:03:35.596Z,5.07
2023-01-30T04:04:35.575Z,5.07
2023-01-30T04:05:35.576Z,5.06
2023-01-30T04:06:36.657Z,4.89
2023-01-30T04:07:35.560Z,4.91
2023-01-30T04:08:35.564Z,4.85
2023-01-30T04:09:35.552Z,4.88
2023-01-30T04:10:35.534Z,4.80
2023-01-30T04:11:35.536Z,4.86
2023-01-30T04:12:35.521Z,4.92
2023-01-30T04:13:35.521Z,4.94
2023-01-30T04:14:35.507Z,4.96
2023-01-30T04:15:35.514Z,4.92
2023-01-30T04:16:35.539Z,4.96
2023-01-30T04:17:35.503Z,4.96
2023-01-30T04:18:35.491Z,5.04
2023-01-30T04:19:35.486Z,4.97
2023-01-30T04:20:35.479Z,5.00
2023-01-30T04:21:35.473Z,5.04
2023-01-30T04:22:35.459Z,5.07
2023-01-30T04:23:35.463Z,5.04
2023-01-30T04:24:35.447Z,5.04
2023-01-30T04:25:35.449Z,4.94
2023-01-30T04:26:35.567Z,4.94
2023-01-30T04:27:35.757Z,4.99
2023-01-30T04:28:35.424Z,5.17
2023-01-30T04:29:35.417Z,5.15
2023-01-30T04:30:35.506Z,5.09
2023-01-30T04:31:35.510Z,5.07
2023-01-30T04:32:35.424Z,5.17
2023-01-30T04:33:35.453Z,5.27
2023-01-30T04:34:35.395Z,5.28
2023-01-30T04:35:35.382Z,5.25
2023-01-30T04:36:35.364Z,5.28
2023-01-30T04:37:35.384Z,5.27
2023-01-30T04:38:35.359Z,5.31
2023-01-30T04:39:35.364Z,5.36
2023-01-30T04:40:35.343Z,5.45
2023-01-30T04:41:35.348Z,5.36
2023-01-30T04:42:35.340Z,5.43
2023-01-30T04:43:35.323Z,5.38
2023-01-30T04:44:35.322Z,5.39
2023-01-30T04:45:35.314Z,5.45
2023-01-30T04:46:35.305Z,5.38
2023-01-30T04:47:35.360Z,5.38
2023-01-30T04:48:35.318Z,5.45
2023-01-30T04:49:35.288Z,5.45
2023-01-30T04:50:35.278Z,5.48
2023-01-30T04:51:35.291Z,5.51
2023-01-30T04:52:35.282Z,5.49
2023-01-30T04:53:35.268Z,5.46
2023-01-30T04:54:35.254Z,5.58
2023-01-30T04:55:35.247Z,5.63
2023-01-30T04:56:35.245Z,5.57
2023-01-30T04:57:35.241Z,5.43
2023-01-30T04:58:35.232Z,5.38
2023-01-30T04:59:35.222Z,5.43
2023-01-30T05:00:35.238Z,5.42
2023-01-30T05:01:35.285Z,5.54
2023-01-30T05:02:35.219Z,5.40
2023-01-30T05:03:35.203Z,5.42
2023-01-30T05:04:35.211Z,5.39
2023-01-30T05:05:35.195Z,5.45
2023-01-30T05:06:35.176Z,5.40
2023-01-30T05:07:35.177Z,5.43
2023-01-30T05:08:35.164Z,5.46
2023-01-30T05:09:35.165Z,5.43
2023-01-30T05:10:35.159Z,5.46
2023-01-30T05:11:35.153Z,5.38
2023-01-30T05:12:35.154Z,5.42
2023-01-30T05:13:35.139Z,5.28
2023-01-30T05:14:35.125Z,5.39
2023-01-30T05:15:35.137Z,5.33
2023-01-30T05:16:35.116Z,5.36
2023-01-30T05:17:35.177Z,5.46
2023-01-30T05:18:35.104Z,5.42
2023-01-30T05:19:35.103Z,5.42
2023-01-30T05:20:35.119Z,5.38
2023-01-30T05:21:35.095Z,5.43
2023-01-30T05:22:35.076Z,5.35
2023-01-30T05:23:35.076Z,5.31
2023-01-30T05:24:35.066Z,5.28
2023-01-30T05:25:35.065Z,5.43
2023-01-30T05:26:35.093Z,5.38
2023-01-30T05:27:35.047Z,5.36
2023-01-30T05:28:35.036Z,5.43
2023-01-30T05:29:35.036Z,5.36
2023-01-30T05:30:35.049Z,5.46
2023-01-30T05:31:35.035Z,5.40
2023-01-30T05:32:35.012Z,5.46
2023-01-30T05:33:35.018Z,5.53
2023-01-30T05:34:35.049Z,5.45
2023-01-30T05:35:34.997Z,5.40
2023-01-30T05:36:35.086Z,5.38
2023-01-30T05:37:34.980Z,5.45
2023-01-30T05:38:34.974Z,5.31
2023-01-30T05:39:34.979Z,5.38
2023-01-30T05:40:34.964Z,5.45
2023-01-30T05:41:34.954Z,5.38
2023-01-30T05:42:34.947Z,5.31
2023-01-30T05:43:34.957Z,5.42
2023-01-30T05:44:34.955Z,5.38
2023-01-30T05:45:34.937Z,5.46
2023-01-30T05:46:34.961Z,5.40
2023-01-30T05:47:34.926Z,5.36
2023-01-30T05:48:34.917Z,5.45
2023-01-30T05:49:34.898Z,5.43
2023-01-30T05:50:34.904Z,5.45
2023-01-30T05:51:34.896Z,5.38
2023-01-30T05:52:34.955Z,5.30
2023-01-30T05:53:34.901Z,5.30
2023-01-30T05:54:34.913Z,5.24
2023-01-30T05:55:34.865Z,5.28
2023-01-30T05:56:34.861Z,5.24
2023-01-30T05:57:34.860Z,5.30
2023-01-30T05:58:34.853Z,5.09
2023-01-30T05:59:34.835Z,5.25
2023-01-30T06:00:34.838Z,5.28
2023-01-30T06:01:34.824Z,5.31
2023-01-30T06:02:34.876Z,5.27
2023-01-30T06:03:34.843Z,5.22
2023-01-30T06:04:34.816Z,5.31
2023-01-30T06:05:34.802Z,5.33
2023-01-30T06:06:34.797Z,5.36
2023-01-30T06:07:34.795Z,5.30
2023-01-30T06:08:35.131Z,5.31
2023-01-30T06:09:34.781Z,5.27
2023-01-30T06:10:34.771Z,5.25
2023-01-30T06:11:34.766Z,5.27
2023-01-30T06:12:34.759Z,5.42
2023-01-30T06:13:34.787Z,5.35
2023-01-30T06:14:34.748Z,5.25
2023-01-30T06:15:34.741Z,5.30
2023-01-30T06:16:34.822Z,5.24
2023-01-30T06:17:34.721Z,5.45
2023-01-30T06:18:34.727Z,5.43
2023-01-30T06:19:34.708Z,5.53
2023-01-30T06:20:34.711Z,5.57
2023-01-30T06:21:34.705Z,5.45
2023-01-30T06:22:34.705Z,5.61
2023-01-30T06:23:34.693Z,5.58
2023-01-30T06:24:34.715Z,5.53
2023-01-30T06:25:34.679Z,5.38
2023-01-30T06:26:34.752Z,5.40
2023-01-30T06:27:34.657Z,5.42
2023-01-30T06:28:34.666Z,5.46
2023-01-30T06:29:34.657Z,5.61
2023-01-30T06:30:34.724Z,5.58
2023-01-30T06:31:34.730Z,5.54
2023-01-30T06:32:34.644Z,5.60
2023-01-30T06:33:34.623Z,5.61
2023-01-30T06:34:34.632Z,5.60
2023-01-30T06:35:34.613Z,5.53
2023-01-30T06:36:34.606Z,5.53
2023-01-30T06:37:34.601Z,5.68
2023-01-30T06:38:34.592Z,5.72
2023-01-30T06:39:34.615Z,5.67
2023-01-30T06:40:34.605Z,5.74
2023-01-30T06:41:34.575Z,5.71
2023-01-30T06:42:34.579Z,5.78
2023-01-30T06:43:34.743Z,5.78
2023-01-30T06:44:34.557Z,5.75
2023-01-30T06:45:34.548Z,5.76
2023-01-30T06:46:34.596Z,5.81
2023-01-30T06:47:34.535Z,5.79
2023-01-30T06:48:34.533Z,5.85
2023-01-30T06:49:34.519Z,5.86
2023-01-30T06:50:34.521Z,5.93
2023-01-30T06:51:34.509Z,5.91
2023-01-30T06:52:34.513Z,6.00
2023-01-30T06:53:34.495Z,5.97
2023-01-30T06:54:34.507Z,6.03
2023-01-30T06:55:34.503Z,6.12
2023-01-30T06:56:34.499Z,6.21
2023-01-30T06:57:34.476Z,6.09
2023-01-30T06:58:34.477Z,6.18
2023-01-30T06:59:34.470Z,6.03
2023-01-30T07:00:34.497Z,6.18
2023-01-30T07:01:34.497Z,6.19
2023-01-30T07:02:34.465Z,6.27
2023-01-30T07:03:34.431Z,6.17
2023-01-30T07:04:34.439Z,6.17
2023-01-30T07:05:34.442Z,6.08
2023-01-30T07:06:34.426Z,6.14
2023-01-30T07:07:34.411Z,6.08
2023-01-30T07:08:34.421Z,6.12
2023-01-30T07:09:34.397Z,6.12
2023-01-30T07:10:34.403Z,6.09
2023-01-30T07:11:34.394Z,6.15
2023-01-30T07:12:34.403Z,6.19
2023-01-30T07:13:34.369Z,6.12
2023-01-30T07:14:34.377Z,6.28
2023-01-30T07:15:34.363Z,6.25
2023-01-30T07:16:34.400Z,6.18
2023-01-30T07:17:34.367Z,6.21
2023-01-30T07:18:34.349Z,6.37
2023-01-30T07:19:34.337Z,6.40
2023-01-30T07:20:34.360Z,6.33
2023-01-30T07:21:34.329Z,6.17
2023-01-30T07:22:34.324Z,6.25
2023-01-30T07:23:34.322Z,6.21
2023-01-30T07:24:34.322Z,6.28
2023-01-30T07:25:34.324Z,6.27
2023-01-30T07:26:34.328Z,6.27
2023-01-30T07:27:34.291Z,6.30
2023-01-30T07:28:34.313Z,6.41
2023-01-30T07:29:34.318Z,6.43
2023-01-30T07:30:34.312Z,6.44
2023-01-30T07:31:34.309Z,6.49
2023-01-30T07:32:34.282Z,6.41
2023-01-30T07:33:34.270Z,6.51
2023-01-30T07:34:34.259Z,6.49
2023-01-30T07:35:34.245Z,6.54
2023-01-30T07:36:34.243Z,6.48
2023-01-30T07:37:34.236Z,6.52
2023-01-30T07:38:34.236Z,6.52
2023-01-30T07:39:34.225Z,6.52
2023-01-30T07:40:34.263Z,6.71
2023-01-30T07:41:34.220Z,6.58
2023-01-30T07:42:34.202Z,6.64
2023-01-30T07:43:34.198Z,6.67
2023-01-30T07:44:34.218Z,6.64
2023-01-30T07:45:34.195Z,6.46
2023-01-30T07:46:34.247Z,6.70
2023-01-30T07:47:34.171Z,6.69
2023-01-30T07:48:34.174Z,6.71
2023-01-30T07:49:34.165Z,6.76
2023-01-30T07:50:34.497Z,6.66
2023-01-30T07:51:34.147Z,6.79
2023-01-30T07:52:34.148Z,6.79
2023-01-30T07:53:34.143Z,6.81
2023-01-30T07:54:34.131Z,6.80
2023-01-30T07:55:34.136Z,6.79
2023-01-30T07:56:34.130Z,6.67
2023-01-30T07:57:34.114Z,6.92
2023-01-30T07:58:34.117Z,6.87
2023-01-30T07:59:34.100Z,6.91
2023-01-30T08:00:34.123Z,6.99
2023-01-30T08:01:34.083Z,6.97
2023-01-30T08:02:34.101Z,6.97
2023-01-30T08:03:34.085Z,7.02
2023-01-30T08:04:34.129Z,7.02
2023-01-30T08:05:34.065Z,7.02
2023-01-30T08:06:34.068Z,7.03
2023-01-30T08:07:34.064Z,6.87
2023-01-30T08:08:34.049Z,6.98
2023-01-30T08:09:34.052Z,6.85
2023-01-30T08:10:34.051Z,6.92
2023-01-30T08:11:34.061Z,6.94
2023-01-30T08:12:34.032Z,6.97
2023-01-30T08:13:34.025Z,7.03
2023-01-30T08:14:34.018Z,7.06
2023-01-30T08:15:34.025Z,7.02
2023-01-30T08:16:34.143Z,7.10
2023-01-30T08:17:34.003Z,7.31
2023-01-30T08:18:34.004Z,7.39
2023-01-30T08:19:33.995Z,7.27
2023-01-30T08:20:33.985Z,7.25
2023-01-30T08:21:33.983Z,7.34
2023-01-30T08:22:33.984Z,7.35
2023-01-30T08:23:33.971Z,7.42
2023-01-30T08:24:33.983Z,7.35
2023-01-30T08:25:33.955Z,7.40
2023-01-30T08:26:34.012Z,7.45
2023-01-30T08:27:33.940Z,7.48
2023-01-30T08:28:33.940Z,7.50
2023-01-30T08:29:33.932Z,7.46
2023-01-30T08:30:33.941Z,7.53
2023-01-30T08:31:33.965Z,7.52
2023-01-30T08:32:33.942Z,7.55
2023-01-30T08:33:33.909Z,7.50
2023-01-30T08:34:33.907Z,7.55
2023-01-30T08:35:33.903Z,7.71
2023-01-30T08:36:33.895Z,7.72
2023-01-30T08:37:33.903Z,7.72
2023-01-30T08:38:33.898Z,7.61
2023-01-30T08:39:35.364Z,7.69
2023-01-30T08:40:33.876Z,7.74
2023-01-30T08:41:33.871Z,7.69
2023-01-30T08:42:33.902Z,7.71
2023-01-30T08:43:33.846Z,7.80
2023-01-30T08:44:33.866Z,7.93
2023-01-30T08:45:33.843Z,7.92
2023-01-30T08:46:33.863Z,7.98
2023-01-30T08:47:33.834Z,7.82
2023-01-30T08:48:43.541Z,7.83
2023-01-30T08:49:33.863Z,7.95
2023-01-30T08:50:33.895Z,8.00
2023-01-30T08:51:33.874Z,8.01
2023-01-30T08:52:33.809Z,7.95
2023-01-30T08:53:33.798Z,8.05
2023-01-30T08:54:33.802Z,8.04
2023-01-30T08:55:33.787Z,8.05
2023-01-30T08:56:33.785Z,7.90
2023-01-30T08:57:33.789Z,7.97
2023-01-30T08:58:33.779Z,8.07
2023-01-30T08:59:33.779Z,8.04
2023-01-30T09:00:33.769Z,8.10
2023-01-30T09:01:33.890Z,8.04
2023-01-30T09:02:33.815Z,8.05
2023-01-30T09:03:33.761Z,8.05
2023-01-30T09:04:33.759Z,8.05
2023-01-30T09:05:33.744Z,8.04
2023-01-30T09:06:33.735Z,8.02
2023-01-30T09:07:33.736Z,8.12
2023-01-30T09:08:33.727Z,8.07
2023-01-30T09:09:33.725Z,8.15
2023-01-30T09:10:33.729Z,8.11
2023-01-30T09:11:33.711Z,8.18
2023-01-30T09:12:33.705Z,8.28
2023-01-30T09:13:33.694Z,8.26
2023-01-30T09:14:33.691Z,8.26
2023-01-30T09:15:33.693Z,8.41
2023-01-30T09:16:33.711Z,8.40
2023-01-30T09:17:33.700Z,8.53
2023-01-30T09:18:33.669Z,8.45
2023-01-30T09:19:33.675Z,8.36
2023-01-30T09:20:33.686Z,8.43
2023-01-30T09:21:33.660Z,8.45
2023-01-30T09:22:33.650Z,8.37
2023-01-30T09:23:33.644Z,8.47
2023-01-30T09:24:33.652Z,8.30
2023-01-30T09:25:33.652Z,8.48
2023-01-30T09:26:33.668Z,8.48
2023-01-30T09:27:33.630Z,8.47
2023-01-30T09:28:33.634Z,8.43
2023-01-30T09:29:33.623Z,8.58
2023-01-30T09:30:33.755Z,8.63
2023-01-30T09:31:33.701Z,8.65
2023-01-30T09:32:33.601Z,8.63
2023-01-30T09:33:33.595Z,8.68
2023-01-30T09:34:33.594Z,8.65
2023-01-30T09:35:33.613Z,8.58
2023-01-30T09:36:33.619Z,8.56
2023-01-30T09:37:33.598Z,8.71
2023-01-30T09:38:33.578Z,8.70
2023-01-30T09:39:33.575Z,8.63
2023-01-30T09:40:33.568Z,8.62
2023-01-30T09:41:33.575Z,8.68
2023-01-30T09:42:33.561Z,8.61
2023-01-30T09:43:33.549Z,8.62
2023-01-30T09:44:33.542Z,8.73
2023-01-30T09:45:33.550Z,8.74
2023-01-30T09:46:33.587Z,8.66
2023-01-30T09:47:33.546Z,8.68
2023-01-30T09:48:33.536Z,8.62
2023-01-30T09:49:33.561Z,8.77
2023-01-30T09:50:33.530Z,8.70
2023-01-30T09:51:33.517Z,8.59
2023-01-30T09:52:33.524Z,8.76
2023-01-30T09:53:33.521Z,8.73
2023-01-30T09:54:33.505Z,8.77
2023-01-30T09:55:33.486Z,8.81
2023-01-30T09:56:33.488Z,8.71
2023-01-30T09:57:33.481Z,8.68
2023-01-30T09:58:33.474Z,8.70
2023-01-30T09:59:33.468Z,8.84
2023-01-30T10:00:33.467Z,8.91
2023-01-30T10:01:33.469Z,8.80
2023-01-30T10:02:33.465Z,8.81
2023-01-30T10:03:33.502Z,9.01
2023-01-30T10:04:33.486Z,9.04
2023-01-30T10:05:33.435Z,8.89
2023-01-30T10:06:33.444Z,8.94
2023-01-30T10:07:33.546Z,8.91
2023-01-30T10:08:33.445Z,8.84
2023-01-30T10:09:33.423Z,8.84
2023-01-30T10:10:33.413Z,8.89
2023-01-30T10:11:33.414Z,8.96
2023-01-30T10:12:33.403Z,9.10
2023-01-30T10:13:33.407Z,9.14
2023-01-30T10:14:33.397Z,9.10
2023-01-30T10:15:33.435Z,9.08
2023-01-30T10:16:33.388Z,8.89
2023-01-30T10:17:33.384Z,8.86
2023-01-30T10:18:33.378Z,8.98
2023-01-30T10:19:35.929Z,8.94
2023-01-30T10:20:33.376Z,8.96
2023-01-30T10:21:33.392Z,8.89
2023-01-30T10:22:33.355Z,9.02
2023-01-30T10:23:33.357Z,9.14
2023-01-30T10:24:33.366Z,9.15
2023-01-30T10:25:33.349Z,9.28
2023-01-30T10:26:33.417Z,9.28
2023-01-30T10:27:33.343Z,9.15
2023-01-30T10:28:33.324Z,9.26
2023-01-30T10:29:33.354Z,9.36
2023-01-30T10:30:33.410Z,9.13
2023-01-30T10:31:33.539Z,9.20
2023-01-30T10:32:33.318Z,9.14
2023-01-30T10:33:33.316Z,9.10
2023-01-30T10:34:33.335Z,9.11
2023-01-30T10:35:33.299Z,9.10
2023-01-30T10:36:33.292Z,9.26
2023-01-30T10:37:33.285Z,9.20
2023-01-30T10:38:33.291Z,9.20
2023-01-30T10:39:34.277Z,9.15
2023-01-30T10:40:33.307Z,9.14
2023-01-30T10:41:33.291Z,9.21
2023-01-30T10:42:33.274Z,9.23
2023-01-30T10:43:33.294Z,9.29
2023-01-30T10:44:33.255Z,9.31
2023-01-30T10:45:34.735Z,9.33
2023-01-30T10:46:33.317Z,9.39
2023-01-30T10:47:46.558Z,9.32
2023-01-30T10:48:43.560Z,9.38
2023-01-30T10:49:33.245Z,9.31
2023-01-30T10:50:33.239Z,9.29
2023-01-30T10:51:33.244Z,9.36
2023-01-30T10:52:33.221Z,9.38
2023-01-30T10:53:33.216Z,9.39
2023-01-30T10:54:33.217Z,9.46
2023-01-30T10:55:37.733Z,9.50
2023-01-30T10:56:33.235Z,9.61
2023-01-30T10:57:33.204Z,9.42
2023-01-30T10:58:33.201Z,9.43
2023-01-30T10:59:33.204Z,9.38
2023-01-30T11:00:33.191Z,9.43
2023-01-30T11:01:33.205Z,9.43
2023-01-30T11:02:33.225Z,9.43
2023-01-30T11:03:33.183Z,9.36
2023-01-30T11:04:33.175Z,9.38
2023-01-30T11:05:33.173Z,9.36
2023-01-30T11:06:33.164Z,9.32
2023-01-30T11:07:33.164Z,9.38
2023-01-30T11:08:33.163Z,9.36
2023-01-30T11:09:33.153Z,9.28
2023-01-30T11:10:33.157Z,9.31
2023-01-30T11:11:33.145Z,9.28
2023-01-30T11:12:33.164Z,9.32
2023-01-30T11:13:33.142Z,9.32
2023-01-30T11:14:33.130Z,9.42
2023-01-30T11:15:33.127Z,9.28
2023-01-30T11:16:33.125Z,9.29
2023-01-30T11:17:33.122Z,9.39
2023-01-30T11:19:17.867Z,9.46
2023-01-30T11:19:33.105Z,9.39
2023-01-30T11:20:33.100Z,9.38
2023-01-30T11:21:43.397Z,9.43
2023-01-30T11:22:33.095Z,9.40
2023-01-30T11:23:33.104Z,9.42
2023-01-30T11:24:33.090Z,9.47
2023-01-30T11:25:33.087Z,9.50
2023-01-30T11:26:45.631Z,9.51
2023-01-30T11:27:33.100Z,9.40
2023-01-30T11:28:33.097Z,9.32
2023-01-30T11:29:33.078Z,9.32
2023-01-30T11:30:33.061Z,9.38
2023-01-30T11:31:41.299Z,9.50
2023-01-30T11:32:33.099Z,9.79
2023-01-30T11:33:33.060Z,9.86
2023-01-30T11:34:33.059Z,9.89
2023-01-30T11:35:33.048Z,9.87
2023-01-30T11:36:33.039Z,9.96
2023-01-30T11:37:33.078Z,9.87
2023-01-30T11:38:33.033Z,10.05
2023-01-30T11:39:33.029Z,10.08
2023-01-30T11:40:33.013Z,10.08
2023-01-30T11:41:33.023Z,10.08
2023-01-30T11:42:33.011Z,10.08
2023-01-30T11:43:33.010Z,9.96
2023-01-30T11:44:33.033Z,9.86
2023-01-30T11:45:33.021Z,9.87
2023-01-30T11:46:33.004Z,9.93
2023-01-30T11:47:33.015Z,9.96
2023-01-30T11:49:09.128Z,9.91
2023-01-30T11:49:45.997Z,9.79
2023-01-30T11:50:37.004Z,9.84
2023-01-30T11:51:33.141Z,9.72
2023-01-30T11:52:32.969Z,9.60
2023-01-30T11:53:32.990Z,9.66
2023-01-30T11:54:32.969Z,9.71
2023-01-30T11:55:32.956Z,9.66
2023-01-30T11:56:32.958Z,9.75
2023-01-30T11:57:32.949Z,9.87
2023-01-30T11:58:32.942Z,9.79
2023-01-30T11:59:32.945Z,9.76
2023-01-30T12:00:32.957Z,9.75
2023-01-30T12:01:32.948Z,9.69
2023-01-30T12:02:32.945Z,9.78
2023-01-30T12:03:33.012Z,9.76
2023-01-30T12:04:32.933Z,9.71
2023-01-30T12:05:32.923Z,9.68
2023-01-30T12:06:32.938Z,9.72
2023-01-30T12:07:32.958Z,9.51
2023-01-30T12:08:41.713Z,9.61
2023-01-30T12:09:32.914Z,9.61
2023-01-30T12:10:32.904Z,9.64
2023-01-30T12:11:32.915Z,9.50
2023-01-30T12:12:32.889Z,9.36
2023-01-30T12:13:32.894Z,9.46
2023-01-30T12:15:32.871Z,9.14
2023-01-30T12:16:32.927Z,9.35
2023-01-30T12:17:32.869Z,9.32
2023-01-30T12:18:32.869Z,9.35
2023-01-30T12:19:32.856Z,9.28
2023-01-30T12:20:32.859Z,9.24
2023-01-30T12:21:32.857Z,9.18
2023-01-30T12:22:32.851Z,9.13
2023-01-30T12:23:32.842Z,9.02
2023-01-30T12:24:32.841Z,9.02
2023-01-30T12:25:32.848Z,9.01
2023-01-30T12:26:32.991Z,9.01
2023-01-30T12:27:32.836Z,8.84
2023-01-30T12:28:32.939Z,8.98
2023-01-30T12:29:32.819Z,8.89
2023-01-30T12:30:32.908Z,9.05
2023-01-30T12:31:32.810Z,9.18
2023-01-30T12:32:32.832Z,9.33
2023-01-30T12:33:32.808Z,9.50
2023-01-30T12:34:32.812Z,9.56
2023-01-30T12:35:32.797Z,9.84
2023-01-30T12:36:32.798Z,9.97
2023-01-30T12:37:32.792Z,10.11
2023-01-30T12:38:32.789Z,10.26
2023-01-30T12:39:32.779Z,10.40
2023-01-30T12:40:32.790Z,10.52
2023-01-30T12:41:32.779Z,10.48
2023-01-30T12:42:32.966Z,10.68
2023-01-30T12:43:32.761Z,10.61
2023-01-30T12:44:32.755Z,10.73
2023-01-30T12:45:32.799Z,11.02
2023-01-30T12:46:32.874Z,11.15
2023-01-30T12:47:32.740Z,11.19
2023-01-30T12:48:40.706Z,11.29
2023-01-30T12:49:32.787Z,11.15
2023-01-30T12:50:32.739Z,11.06
2023-01-30T12:51:32.943Z,11.03
2023-01-30T12:52:32.723Z,11.06
2023-01-30T12:53:32.723Z,11.14
2023-01-30T12:54:32.719Z,11.18
2023-01-30T12:55:32.798Z,11.02
2023-01-30T12:56:32.719Z,10.99
2023-01-30T12:57:32.703Z,10.91
2023-01-30T12:58:32.705Z,10.97
2023-01-30T12:59:32.711Z,11.06
2023-01-30T13:00:32.700Z,11.17
2023-01-30T13:01:32.790Z,11.36
2023-01-30T13:02:32.755Z,11.37
2023-01-30T13:03:32.686Z,11.11
2023-01-30T13:04:32.995Z,11.15
2023-01-30T13:05:32.671Z,11.02
2023-01-30T13:06:32.675Z,11.06
2023-01-30T13:07:32.666Z,10.96
2023-01-30T13:08:32.660Z,10.97
2023-01-30T13:09:32.662Z,10.85
2023-01-30T13:10:32.660Z,10.99
2023-01-30T13:11:32.651Z,10.97
2023-01-30T13:12:32.656Z,11.07
2023-01-30T13:13:32.643Z,11.27
2023-01-30T13:14:32.643Z,11.24
2023-01-30T13:15:32.639Z,11.11
2023-01-30T13:16:32.743Z,11.14
2023-01-30T13:17:32.631Z,10.96